Time;durP1;ratioP1;P1;durP2;ratioP2;P2;SDS_P1;SDS_P2;PMS_P1;PMS_P2;Temp;Humidity;BMP_temperature;BMP_pressure;BME280_temperature;BME280_humidity;BME280_pressure;Samples;Min_cycle;Max_cycle;Signal;HPM_P1;HPM_P2
2023/11/08 00:00:36;;;;;;;23.52;18.23;;;8.60;99.90;;;;;;5060077;28;20845;-80
2023/11/08 00:03:01;;;;;;;23.33;17.98;;;8.60;99.90;;;;;;5080184;28;20048;-80
2023/11/08 00:05:28;;;;;;;19.58;17.15;;;8.50;99.90;;;;;;5076525;28;20036;-80
2023/11/08 00:07:55;;;;;;;20.23;17.30;;;8.60;99.90;;;;;;5067822;28;20055;-80
2023/11/08 00:10:21;;;;;;;21.58;17.55;;;8.60;99.90;;;;;;5067339;28;20478;-81
2023/11/08 00:12:47;;;;;;;35.58;23.23;;;8.60;99.90;;;;;;5082807;28;20494;-82
2023/11/08 00:15:13;;;;;;;20.92;18.60;;;8.60;99.90;;;;;;5081007;28;20055;-81
2023/11/08 00:17:40;;;;;;;26.83;19.83;;;8.60;99.90;;;;;;5083715;28;20046;-82
2023/11/08 00:20:09;;;;;;;24.73;19.17;;;8.60;99.90;;;;;;5064397;28;20051;-82
2023/11/08 00:22:35;;;;;;;23.27;20.87;;;8.60;99.90;;;;;;5080555;28;20055;-81
2023/11/08 00:25:01;;;;;;;22.48;20.08;;;8.60;99.90;;;;;;5066415;28;20157;-81
2023/11/08 00:27:27;;;;;;;28.88;23.20;;;8.60;99.90;;;;;;5081185;28;20157;-81
2023/11/08 00:29:52;;;;;;;25.05;21.98;;;8.60;99.90;;;;;;5069119;28;20048;-81
2023/11/08 00:32:21;;;;;;;24.75;21.88;;;8.60;99.90;;;;;;5083784;28;20036;-81
2023/11/08 00:34:50;;;;;;;23.20;20.70;;;8.60;99.90;;;;;;5079289;28;20051;-81
2023/11/08 00:37:18;;;;;;;25.42;21.80;;;8.60;99.90;;;;;;5070607;28;20051;-80
2023/11/08 00:39:44;;;;;;;27.52;22.17;;;8.60;99.90;;;;;;5066850;28;20043;-80
2023/11/08 00:42:10;;;;;;;34.30;24.48;;;8.60;99.90;;;;;;5065491;28;20044;-80
2023/11/08 00:44:36;;;;;;;37.85;24.90;;;8.60;99.90;;;;;;5070573;28;20483;-80
2023/11/08 00:50:44;;;;;;;25.35;22.67;;;8.60;99.90;;;;;;5082984;28;20043;-80
2023/11/08 00:53:15;;;;;;;30.25;24.08;;;8.60;99.90;;;;;;5079594;28;20059;-81
2023/11/08 00:55:41;;;;;;;25.85;23.05;;;8.60;99.90;;;;;;5079845;28;20493;-80
2023/11/08 00:58:08;;;;;;;23.77;21.25;;;8.60;99.90;;;;;;5069505;28;20052;-80
2023/11/08 01:00:35;;;;;;;29.13;22.52;;;8.60;99.90;;;;;;5084222;28;20040;-81
2023/11/08 01:03:01;;;;;;;26.90;21.80;;;8.60;99.90;;;;;;5069553;28;20051;-79
2023/11/08 01:05:27;;;;;;;24.45;21.83;;;8.60;99.90;;;;;;5059618;28;20036;-80
2023/11/08 01:07:53;;;;;;;23.50;21.20;;;8.60;99.90;;;;;;5084635;28;20640;-80
2023/11/08 01:10:21;;;;;;;25.02;22.35;;;8.60;99.90;;;;;;5083459;28;20035;-79
2023/11/08 01:12:48;;;;;;;25.35;22.23;;;8.60;99.90;;;;;;5081011;28;20043;-80
2023/11/08 01:15:14;;;;;;;24.88;21.35;;;8.60;99.90;;;;;;5082571;28;20104;-80
2023/11/08 01:17:40;;;;;;;25.55;22.85;;;8.60;99.90;;;;;;5083044;28;20044;-80
2023/11/08 01:20:06;;;;;;;26.02;21.90;;;8.60;99.90;;;;;;5075266;28;20047;-80
2023/11/08 01:22:32;;;;;;;33.53;23.77;;;8.60;99.90;;;;;;5066917;28;20036;-79
2023/11/08 01:24:58;;;;;;;29.65;24.02;;;8.60;99.90;;;;;;5069290;28;20044;-77
2023/11/08 01:27:24;;;;;;;24.08;21.10;;;8.60;99.90;;;;;;5081457;28;20044;-77
2023/11/08 01:29:50;;;;;;;25.27;22.50;;;8.60;99.90;;;;;;5079962;28;20051;-76
2023/11/08 01:32:15;;;;;;;26.17;22.15;;;8.70;99.90;;;;;;5086333;28;20564;-76
2023/11/08 01:34:42;;;;;;;41.95;26.38;;;8.60;99.90;;;;;;5077386;28;20048;-77
2023/11/08 01:37:09;;;;;;;24.05;21.50;;;8.60;99.90;;;;;;5069065;28;20036;-77
2023/11/08 01:39:35;;;;;;;33.70;24.75;;;8.60;99.90;;;;;;5080743;28;20318;-77
2023/11/08 01:42:01;;;;;;;23.70;21.13;;;8.60;99.90;;;;;;5064475;28;20040;-77
2023/11/08 01:44:27;;;;;;;26.02;21.75;;;8.60;99.90;;;;;;5068561;28;20513;-77
2023/11/08 01:46:54;;;;;;;32.70;22.52;;;8.60;99.90;;;;;;5079224;28;20044;-77
2023/11/08 01:49:25;;;;;;;24.15;21.60;;;8.60;99.90;;;;;;5067970;28;20050;-77
2023/11/08 01:51:52;;;;;;;24.92;22.33;;;8.60;99.90;;;;;;5082226;28;20121;-76
2023/11/08 01:54:19;;;;;;;27.13;23.85;;;8.60;99.90;;;;;;5068585;28;20159;-77
2023/11/08 01:56:46;;;;;;;29.80;23.83;;;8.60;99.90;;;;;;5084525;28;20047;-76
2023/11/08 01:59:17;;;;;;;32.33;24.65;;;8.60;99.90;;;;;;5080325;28;20132;-76
2023/11/08 02:01:44;;;;;;;26.35;23.45;;;8.60;99.90;;;;;;5068576;28;20039;-76
2023/11/08 02:04:11;;;;;;;25.65;22.20;;;8.60;99.90;;;;;;5066783;28;20143;-76
2023/11/08 02:06:37;;;;;;;34.00;24.73;;;8.60;99.90;;;;;;5064227;28;20044;-77
2023/11/08 02:09:04;;;;;;;23.77;21.17;;;8.50;99.90;;;;;;5067293;28;20109;-80
2023/11/08 02:11:30;;;;;;;27.50;23.27;;;8.50;99.90;;;;;;5066902;28;20105;-80
2023/11/08 02:13:56;;;;;;;23.00;20.63;;;8.40;99.90;;;;;;5077470;28;20075;-79
2023/11/08 02:16:22;;;;;;;26.85;21.27;;;8.50;99.90;;;;;;5070167;28;20048;-80
2023/11/08 02:18:49;;;;;;;23.80;20.92;;;8.50;99.90;;;;;;5083066;28;20101;-79
2023/11/08 02:21:15;;;;;;;25.52;21.95;;;8.50;99.90;;;;;;5065176;28;20093;-79
2023/11/08 02:23:41;;;;;;;25.52;20.77;;;8.50;99.90;;;;;;5065018;28;20133;-79
2023/11/08 02:26:07;;;;;;;23.38;19.38;;;8.50;99.90;;;;;;5079335;28;20134;-80
2023/11/08 02:28:36;;;;;;;23.35;19.80;;;8.40;99.90;;;;;;5070398;28;20709;-81
2023/11/08 02:31:02;;;;;;;24.90;17.75;;;8.50;99.90;;;;;;5077281;28;20052;-80
2023/11/08 02:33:29;;;;;;;22.15;18.30;;;8.50;99.90;;;;;;5065584;28;20067;-80
2023/11/08 02:36:00;;;;;;;21.13;17.02;;;8.50;99.90;;;;;;5070106;28;20044;-80
2023/11/08 02:38:27;;;;;;;26.27;19.45;;;8.50;99.90;;;;;;5068380;28;20448;-80
2023/11/08 02:40:53;;;;;;;24.65;17.67;;;8.40;99.90;;;;;;5082190;28;20048;-80
2023/11/08 02:43:19;;;;;;;18.88;16.08;;;8.40;99.90;;;;;;5055615;28;20117;-79
2023/11/08 02:45:45;;;;;;;20.13;15.77;;;8.40;99.90;;;;;;5081172;28;20047;-79
2023/11/08 02:48:11;;;;;;;18.27;16.02;;;8.50;99.90;;;;;;5079952;28;20046;-78
2023/11/08 02:50:38;;;;;;;19.15;16.25;;;8.40;99.90;;;;;;5066378;28;20044;-79
2023/11/08 02:53:04;;;;;;;16.35;14.68;;;8.40;99.90;;;;;;5083378;28;20593;-79
2023/11/08 02:55:31;;;;;;;18.95;14.48;;;8.40;99.90;;;;;;5068335;28;20044;-79
2023/11/08 02:57:58;;;;;;;20.02;15.38;;;8.40;99.90;;;;;;5059973;28;20036;-79
2023/11/08 03:00:24;;;;;;;22.90;16.42;;;8.40;99.90;;;;;;5058402;28;20090;-78
2023/11/08 03:02:53;;;;;;;17.83;14.10;;;8.40;99.90;;;;;;5079623;28;20038;-78
2023/11/08 03:05:21;;;;;;;19.35;15.35;;;8.40;99.90;;;;;;5062647;28;20062;-78
2023/11/08 03:07:54;;;;;;;18.67;15.20;;;8.40;99.90;;;;;;5080949;28;20040;-79
2023/11/08 03:10:21;;;;;;;17.00;15.18;;;8.40;99.90;;;;;;5065740;28;20063;-78
2023/11/08 03:12:51;;;;;;;21.25;15.20;;;8.40;99.90;;;;;;5078002;28;20089;-76
2023/11/08 03:15:17;;;;;;;25.08;16.75;;;8.40;99.90;;;;;;5079849;28;20046;-76
2023/11/08 03:17:44;;;;;;;19.88;16.02;;;8.40;99.90;;;;;;5083074;28;20052;-77
2023/11/08 03:20:14;;;;;;;22.88;15.77;;;8.50;99.90;;;;;;5079693;28;20048;-76
2023/11/08 03:22:41;;;;;;;16.80;14.98;;;8.50;99.90;;;;;;5099699;28;20189;-77
2023/11/08 03:25:11;;;;;;;16.52;14.45;;;8.40;99.90;;;;;;5062466;28;20322;-77
2023/11/08 03:27:41;;;;;;;16.45;14.55;;;8.40;99.90;;;;;;5084600;28;22004;-77
2023/11/08 03:30:15;;;;;;;22.60;15.20;;;8.40;99.90;;;;;;5064081;28;20052;-77
2023/11/08 03:32:41;;;;;;;17.33;14.63;;;8.40;99.90;;;;;;5078935;28;20043;-79
2023/11/08 03:35:07;;;;;;;18.83;15.27;;;8.40;99.90;;;;;;5055917;28;20138;-77
2023/11/08 03:37:37;;;;;;;22.48;16.73;;;8.40;99.90;;;;;;5077821;28;20170;-76
2023/11/08 03:40:11;;;;;;;18.90;16.90;;;8.40;99.90;;;;;;5065356;28;20040;-77
2023/11/08 03:42:46;;;;;;;18.00;15.13;;;8.40;99.90;;;;;;5096809;28;20245;-76
2023/11/08 03:45:13;;;;;;;18.23;16.13;;;8.40;99.90;;;;;;5085783;28;20059;-77
2023/11/08 03:47:40;;;;;;;20.20;15.57;;;8.40;99.90;;;;;;5069201;28;20119;-77
2023/11/08 03:50:07;;;;;;;28.83;18.20;;;8.40;99.90;;;;;;5081360;28;20753;-76
2023/11/08 03:52:33;;;;;;;20.45;16.70;;;8.40;99.90;;;;;;5081388;28;20035;-76
2023/11/08 03:55:00;;;;;;;17.55;15.55;;;8.40;99.90;;;;;;5083899;28;20458;-76
2023/11/08 03:57:25;;;;;;;24.23;17.40;;;8.40;99.90;;;;;;5073641;28;20048;-76
2023/11/08 03:59:53;;;;;;;25.42;18.20;;;8.40;99.90;;;;;;5081078;28;20627;-76
2023/11/08 04:02:21;;;;;;;25.27;18.10;;;8.40;99.90;;;;;;5070499;28;20039;-76
2023/11/08 04:04:47;;;;;;;27.00;19.05;;;8.40;99.90;;;;;;5066375;28;20032;-76
2023/11/08 04:07:13;;;;;;;20.23;16.17;;;8.30;99.90;;;;;;5079730;28;20040;-76
2023/11/08 04:09:43;;;;;;;20.65;16.73;;;8.30;99.90;;;;;;5069834;28;20036;-75
2023/11/08 04:12:10;;;;;;;21.05;16.35;;;8.30;99.90;;;;;;5065781;28;21583;-76
2023/11/08 04:14:39;;;;;;;19.45;16.40;;;8.30;99.90;;;;;;5065494;28;20432;-76
2023/11/08 04:17:09;;;;;;;25.63;17.95;;;8.30;99.90;;;;;;5087108;28;20079;-76
2023/11/08 04:19:36;;;;;;;20.77;16.73;;;8.30;99.90;;;;;;5083334;28;20581;-79
2023/11/08 04:22:02;;;;;;;21.38;16.50;;;8.20;99.90;;;;;;5071249;28;20071;-76
2023/11/08 04:24:28;;;;;;;19.45;16.27;;;8.20;99.90;;;;;;5066293;28;20047;-76
2023/11/08 04:26:59;;;;;;;20.48;16.45;;;8.30;99.90;;;;;;5071710;28;20055;-76
2023/11/08 04:29:25;;;;;;;18.30;14.75;;;8.20;99.90;;;;;;5081887;28;20510;-76
2023/11/08 04:31:51;;;;;;;24.75;18.42;;;8.20;99.90;;;;;;5070272;28;20051;-75
2023/11/08 04:34:17;;;;;;;31.33;18.67;;;8.20;99.90;;;;;;5086667;28;20036;-76
2023/11/08 04:36:43;;;;;;;17.88;15.25;;;8.20;99.90;;;;;;5067621;28;20044;-76
2023/11/08 04:39:10;;;;;;;18.67;15.50;;;8.20;99.90;;;;;;5083739;28;20131;-76
2023/11/08 04:41:38;;;;;;;18.13;15.20;;;8.10;99.90;;;;;;5083673;28;20119;-76
2023/11/08 04:44:05;;;;;;;17.60;15.80;;;8.10;99.90;;;;;;5066034;28;20036;-76
2023/11/08 04:46:30;;;;;;;21.77;17.27;;;8.10;99.90;;;;;;5083208;28;20123;-76
2023/11/08 04:48:59;;;;;;;18.25;15.55;;;8.10;99.90;;;;;;5067193;28;20561;-76
2023/11/08 04:51:25;;;;;;;25.42;17.25;;;8.10;99.90;;;;;;5081409;28;20051;-76
2023/11/08 04:53:54;;;;;;;23.05;17.50;;;8.10;99.90;;;;;;5085931;28;20067;-76
2023/11/08 04:56:20;;;;;;;20.90;17.73;;;8.00;99.90;;;;;;5081867;28;20097;-75
2023/11/08 04:58:46;;;;;;;23.15;18.52;;;8.00;99.90;;;;;;5087146;28;20502;-76
2023/11/08 05:01:11;;;;;;;21.33;18.92;;;8.00;99.90;;;;;;5061831;28;20044;-78
2023/11/08 05:03:37;;;;;;;22.05;18.52;;;8.00;99.90;;;;;;5081469;28;20048;-78
2023/11/08 05:06:06;;;;;;;27.73;21.15;;;8.00;99.90;;;;;;5067983;28;20048;-78
2023/11/08 05:08:32;;;;;;;24.17;20.83;;;8.00;99.90;;;;;;5065666;28;20040;-78
2023/11/08 05:10:58;;;;;;;22.27;19.77;;;8.00;99.90;;;;;;5075582;28;20059;-78
2023/11/08 05:13:24;;;;;;;23.20;20.27;;;8.00;99.90;;;;;;5071920;28;20043;-79
2023/11/08 05:15:50;;;;;;;25.08;21.67;;;8.00;99.90;;;;;;5060734;28;20045;-79
2023/11/08 05:18:16;;;;;;;24.02;21.52;;;8.00;99.90;;;;;;5065951;28;20395;-78
2023/11/08 05:20:43;;;;;;;28.35;22.10;;;8.00;99.90;;;;;;5084195;28;20036;-78
2023/11/08 05:23:11;;;;;;;28.35;23.58;;;8.10;99.90;;;;;;5066887;28;20040;-78
2023/11/08 05:25:41;;;;;;;39.15;26.92;;;8.10;99.90;;;;;;5079139;28;20566;-78
2023/11/08 05:28:07;;;;;;;36.15;27.67;;;8.10;99.90;;;;;;5067818;28;20495;-78
2023/11/08 05:30:37;;;;;;;33.03;27.13;;;8.20;99.90;;;;;;5066276;28;20035;-77
2023/11/08 05:33:05;;;;;;;55.58;31.75;;;8.20;99.90;;;;;;5070044;28;20269;-78
2023/11/08 05:35:31;;;;;;;33.45;27.70;;;8.20;99.90;;;;;;5066769;28;20047;-78
2023/11/08 05:37:57;;;;;;;39.10;30.60;;;8.20;99.90;;;;;;5068384;28;20051;-79
2023/11/08 05:40:24;;;;;;;53.33;33.83;;;8.30;99.90;;;;;;5080089;28;20051;-78
2023/11/08 05:42:50;;;;;;;47.13;33.50;;;8.30;99.90;;;;;;5065853;28;20044;-79
2023/11/08 05:45:16;;;;;;;36.63;30.85;;;8.30;99.90;;;;;;5063905;28;20115;-78
2023/11/08 05:47:44;;;;;;;40.08;31.25;;;8.40;99.90;;;;;;5083240;28;20130;-79
2023/11/08 05:50:10;;;;;;;50.88;34.08;;;8.40;99.90;;;;;;5080042;28;20078;-79
2023/11/08 05:52:37;;;;;;;46.90;33.85;;;8.40;99.90;;;;;;5079389;28;20074;-79
2023/11/08 05:55:03;;;;;;;46.58;33.80;;;8.40;99.90;;;;;;5065781;28;20040;-78
2023/11/08 05:57:29;;;;;;;47.88;35.53;;;8.40;99.90;;;;;;5084962;28;20098;-79
2023/11/08 05:59:55;;;;;;;43.08;34.55;;;8.50;99.90;;;;;;5062125;28;20051;-78
2023/11/08 06:02:21;;;;;;;42.95;34.85;;;8.50;99.90;;;;;;5066186;28;20036;-79
2023/11/08 06:04:48;;;;;;;47.88;35.72;;;8.50;99.90;;;;;;5075543;28;20035;-79
2023/11/08 06:07:15;;;;;;;49.72;37.78;;;8.50;99.90;;;;;;5083321;28;20048;-78
2023/11/08 06:09:43;;;;;;;43.80;35.67;;;8.60;99.90;;;;;;5066569;28;20063;-78
2023/11/08 06:12:09;;;;;;;43.90;35.92;;;8.60;99.90;;;;;;5079561;28;20082;-78
2023/11/08 06:14:35;;;;;;;48.80;36.65;;;8.60;99.90;;;;;;5076174;28;20108;-78
2023/11/08 06:17:01;;;;;;;48.08;36.28;;;8.60;99.90;;;;;;5065552;28;20044;-78
2023/11/08 06:19:34;;;;;;;53.63;37.30;;;8.60;99.90;;;;;;5067062;28;20089;-78
2023/11/08 06:21:59;;;;;;;58.58;39.88;;;8.70;99.90;;;;;;5079293;28;20048;-78
2023/11/08 06:24:25;;;;;;;57.60;38.83;;;8.70;99.90;;;;;;5063064;28;20355;-78
2023/11/08 06:26:51;;;;;;;45.55;36.25;;;8.70;99.90;;;;;;5077665;28;20040;-77
2023/11/08 06:29:16;;;;;;;47.58;36.88;;;8.70;99.90;;;;;;5066995;28;20047;-78
2023/11/08 06:31:42;;;;;;;57.05;39.72;;;8.70;99.90;;;;;;5081239;28;20078;-77
2023/11/08 06:34:08;;;;;;;50.85;38.28;;;8.70;99.90;;;;;;5080727;28;20036;-77
2023/11/08 06:36:34;;;;;;;39.30;33.88;;;8.80;99.90;;;;;;5079298;28;20510;-78
2023/11/08 06:38:59;;;;;;;48.80;36.55;;;8.70;99.90;;;;;;5067263;28;20400;-78
2023/11/08 06:41:26;;;;;;;42.70;36.95;;;8.80;99.90;;;;;;5061132;28;20396;-78
2023/11/08 06:43:53;;;;;;;49.70;37.40;;;8.80;99.90;;;;;;5067581;28;20097;-75
2023/11/08 06:46:19;;;;;;;50.10;38.92;;;8.80;99.90;;;;;;5082295;28;20100;-75
2023/11/08 06:48:46;;;;;;;45.83;36.28;;;8.80;99.90;;;;;;5065051;28;20589;-75
2023/11/08 06:51:15;;;;;;;42.88;35.63;;;8.80;99.90;;;;;;5063169;28;20552;-75
2023/11/08 06:53:40;;;;;;;48.30;37.00;;;8.80;99.90;;;;;;5064087;28;20032;-75
2023/11/08 06:56:07;;;;;;;41.75;35.40;;;8.80;99.90;;;;;;5063846;28;20060;-75
2023/11/08 06:58:33;;;;;;;41.58;35.38;;;8.80;99.90;;;;;;5062047;28;20319;-75
2023/11/08 07:01:01;;;;;;;46.47;35.25;;;8.80;99.90;;;;;;5076405;28;20047;-75
2023/11/08 07:03:27;;;;;;;40.78;33.90;;;8.80;99.90;;;;;;5098965;28;20047;-75
2023/11/08 07:05:54;;;;;;;46.15;36.13;;;8.80;99.90;;;;;;5058964;28;20398;-75
2023/11/08 07:08:21;;;;;;;40.80;34.10;;;8.80;99.90;;;;;;5062893;28;20048;-75
2023/11/08 07:10:46;;;;;;;37.40;32.05;;;8.80;99.90;;;;;;5077077;28;20376;-76
2023/11/08 07:13:12;;;;;;;36.42;32.38;;;8.80;99.90;;;;;;5080164;28;20066;-75
2023/11/08 07:15:38;;;;;;;41.83;33.47;;;8.80;99.90;;;;;;5073631;28;20096;-75
2023/11/08 07:18:04;;;;;;;38.53;33.67;;;8.90;99.90;;;;;;5078569;28;20102;-76
2023/11/08 07:20:30;;;;;;;39.72;35.05;;;8.90;99.90;;;;;;5076950;28;20112;-75
2023/11/08 07:22:56;;;;;;;39.08;33.35;;;8.90;99.90;;;;;;5068985;28;20036;-75
2023/11/08 07:25:21;;;;;;;39.40;33.85;;;8.90;99.90;;;;;;5078752;28;20047;-75
2023/11/08 07:27:47;;;;;;;37.25;33.05;;;8.90;99.90;;;;;;5081684;28;20036;-75
2023/11/08 07:30:15;;;;;;;41.25;34.30;;;8.90;99.90;;;;;;5078868;28;20044;-76
2023/11/08 07:32:41;;;;;;;40.53;35.13;;;8.90;99.90;;;;;;5079910;28;20040;-75
2023/11/08 07:35:08;;;;;;;41.42;34.95;;;8.90;99.90;;;;;;5084268;28;20050;-75
2023/11/08 07:37:40;;;;;;;42.83;35.38;;;8.90;99.90;;;;;;5063882;28;20108;-75
2023/11/08 07:40:12;;;;;;;41.63;34.28;;;8.90;99.90;;;;;;5080099;28;20040;-75
2023/11/08 07:42:41;;;;;;;36.67;32.00;;;8.90;99.90;;;;;;5078924;28;20836;-75
2023/11/08 07:45:08;;;;;;;38.03;32.25;;;8.90;99.90;;;;;;5063439;28;20135;-76
2023/11/08 07:47:34;;;;;;;41.03;34.33;;;8.90;99.90;;;;;;5064723;28;20051;-76
2023/11/08 07:50:00;;;;;;;44.83;34.85;;;9.00;99.90;;;;;;5086843;28;20058;-76
2023/11/08 07:52:26;;;;;;;42.15;33.95;;;9.00;99.90;;;;;;5076532;28;20060;-76
2023/11/08 07:54:52;;;;;;;39.15;33.15;;;9.00;99.90;;;;;;5059157;28;20028;-76
2023/11/08 07:57:18;;;;;;;36.88;32.13;;;9.00;99.90;;;;;;5068239;28;20052;-76
2023/11/08 07:59:45;;;;;;;44.63;33.72;;;9.00;99.90;;;;;;5072121;28;20522;-76
2023/11/08 08:02:11;;;;;;;40.90;32.13;;;9.00;99.90;;;;;;5065543;28;20044;-76
2023/11/08 08:04:37;;;;;;;37.47;29.45;;;9.00;99.90;;;;;;5079301;28;20048;-76
2023/11/08 08:07:06;;;;;;;43.97;33.03;;;9.00;99.90;;;;;;5079658;28;20489;-76
2023/11/08 08:09:32;;;;;;;34.65;29.02;;;9.00;99.90;;;;;;5065680;28;20043;-77
2023/11/08 08:11:59;;;;;;;33.42;28.35;;;9.00;99.90;;;;;;5080040;28;20031;-77
2023/11/08 08:14:24;;;;;;;37.85;29.75;;;9.00;99.90;;;;;;5077557;28;20118;-77
2023/11/08 08:16:55;;;;;;;31.73;26.80;;;9.00;99.90;;;;;;5067075;28;20448;-76
2023/11/08 08:19:24;;;;;;;26.75;23.90;;;9.10;99.90;;;;;;5064751;28;20040;-75
2023/11/08 08:21:51;;;;;;;31.80;27.02;;;9.00;99.90;;;;;;5065817;28;20040;-75
2023/11/08 08:24:19;;;;;;;32.65;26.13;;;9.00;99.90;;;;;;5080888;28;20063;-75
2023/11/08 08:26:46;;;;;;;32.15;25.98;;;9.00;99.90;;;;;;5077867;28;20309;-75
2023/11/08 08:29:13;;;;;;;29.02;23.92;;;9.00;99.90;;;;;;5092268;28;20248;-75
2023/11/08 08:31:39;;;;;;;25.08;22.23;;;9.00;99.90;;;;;;5071730;28;20040;-75
2023/11/08 08:34:07;;;;;;;27.45;21.30;;;9.10;99.90;;;;;;5065831;28;20054;-74
2023/11/08 08:36:33;;;;;;;22.02;19.73;;;9.10;99.90;;;;;;5085381;28;20032;-75
2023/11/08 08:38:59;;;;;;;23.33;20.83;;;9.10;99.90;;;;;;5081916;28;20055;-75
2023/11/08 08:41:25;;;;;;;22.10;19.65;;;9.10;99.90;;;;;;5080067;28;20053;-75
2023/11/08 08:43:51;;;;;;;21.23;18.92;;;9.10;99.90;;;;;;5069858;28;20032;-75
2023/11/08 08:46:17;;;;;;;24.92;19.70;;;9.20;99.90;;;;;;5065501;28;20043;-76
2023/11/08 08:48:42;;;;;;;24.63;21.42;;;9.20;99.90;;;;;;5069350;28;20120;-79
2023/11/08 08:51:08;;;;;;;24.63;19.45;;;9.20;99.90;;;;;;5069588;28;20063;-78
2023/11/08 08:53:34;;;;;;;22.30;19.80;;;9.20;99.90;;;;;;5083547;28;20028;-78
2023/11/08 08:56:01;;;;;;;21.88;19.33;;;9.20;99.90;;;;;;5079597;28;20044;-77
2023/11/08 08:58:27;;;;;;;25.25;19.58;;;9.20;99.90;;;;;;5071789;28;20048;-78
2023/11/08 09:00:53;;;;;;;22.42;18.02;;;9.20;99.90;;;;;;5082594;28;20541;-78
2023/11/08 09:03:19;;;;;;;24.02;18.30;;;9.20;99.90;;;;;;5069620;28;20052;-77
2023/11/08 09:05:45;;;;;;;21.48;15.43;;;9.20;99.90;;;;;;5066585;28;20047;-78
2023/11/08 09:08:11;;;;;;;18.73;16.40;;;9.20;99.90;;;;;;5069619;28;20044;-79
2023/11/08 09:10:37;;;;;;;26.40;18.38;;;9.20;99.90;;;;;;5065093;28;20123;-79
2023/11/08 09:13:03;;;;;;;23.70;15.55;;;9.20;99.90;;;;;;5083563;28;20064;-79
2023/11/08 09:15:30;;;;;;;21.52;16.35;;;9.20;99.90;;;;;;5081323;28;20794;-79
2023/11/08 09:17:57;;;;;;;18.38;14.57;;;9.30;99.90;;;;;;5068130;28;20486;-80
2023/11/08 09:20:22;;;;;;;19.02;15.10;;;9.30;99.90;;;;;;5066847;28;20520;-79
2023/11/08 09:22:48;;;;;;;17.52;13.45;;;9.40;99.90;;;;;;5082849;28;20040;-79
2023/11/08 09:25:14;;;;;;;17.55;13.63;;;9.40;99.90;;;;;;5080754;28;20040;-79
2023/11/08 09:27:40;;;;;;;20.40;13.57;;;9.50;99.90;;;;;;5083365;28;20056;-79
2023/11/08 09:30:08;;;;;;;15.68;12.10;;;9.50;99.90;;;;;;5063900;28;20044;-79
2023/11/08 09:32:35;;;;;;;13.90;11.27;;;9.60;99.90;;;;;;5071518;28;20040;-79
2023/11/08 09:35:01;;;;;;;16.25;10.80;;;9.60;99.90;;;;;;5084198;28;20062;-79
2023/11/08 09:37:27;;;;;;;16.67;10.13;;;9.60;99.90;;;;;;5082297;28;20056;-79
2023/11/08 09:39:55;;;;;;;18.40;9.82;;;9.70;99.90;;;;;;5066916;28;20037;-79
2023/11/08 09:42:22;;;;;;;13.07;9.00;;;9.70;99.90;;;;;;5069300;28;20478;-79
2023/11/08 09:44:48;;;;;;;14.25;9.25;;;9.70;99.90;;;;;;5080876;28;20047;-79
2023/11/08 09:47:17;;;;;;;14.60;8.57;;;9.80;99.90;;;;;;5081011;28;20040;-80
2023/11/08 09:49:49;;;;;;;12.75;8.95;;;9.80;99.90;;;;;;5054701;28;20079;-79
2023/11/08 09:52:15;;;;;;;13.50;9.43;;;9.80;99.90;;;;;;5061732;28;20097;-79
2023/11/08 09:54:45;;;;;;;12.07;8.90;;;9.90;99.90;;;;;;5071070;28;20048;-79
2023/11/08 09:57:13;;;;;;;14.23;9.43;;;9.90;99.90;;;;;;5071781;28;20078;-78
2023/11/08 09:59:40;;;;;;;13.23;8.10;;;9.90;99.90;;;;;;5048351;28;20074;-77
2023/11/08 10:02:12;;;;;;;10.57;7.07;;;9.90;99.90;;;;;;5067827;28;20702;-76
2023/11/08 10:04:39;;;;;;;9.65;7.10;;;10.00;99.90;;;;;;5041607;28;20088;-77
2023/11/08 10:07:05;;;;;;;10.00;6.40;;;10.00;99.90;;;;;;5056326;28;20510;-76
2023/11/08 10:09:34;;;;;;;12.65;6.38;;;10.00;99.90;;;;;;5058531;28;20133;-77
2023/11/08 10:12:00;;;;;;;11.93;6.65;;;10.10;99.90;;;;;;5059288;28;20054;-76
2023/11/08 10:14:36;;;;;;;11.15;6.30;;;10.20;99.90;;;;;;5043492;28;20320;-76
2023/11/08 10:17:03;;;;;;;8.65;6.07;;;10.20;99.90;;;;;;5042678;28;20644;-76
2023/11/08 10:19:39;;;;;;;10.95;5.75;;;10.20;99.90;;;;;;5055871;28;20048;-77
2023/11/08 10:22:07;;;;;;;10.70;5.75;;;10.30;99.90;;;;;;5041364;28;20512;-77
2023/11/08 10:24:36;;;;;;;9.30;5.88;;;10.30;99.90;;;;;;5073811;28;20075;-77
2023/11/08 10:27:11;;;;;;;8.23;4.85;;;10.30;99.90;;;;;;5080017;28;20067;-77
2023/11/08 10:29:37;;;;;;;10.80;5.00;;;10.30;99.90;;;;;;5082133;28;20064;-76
2023/11/08 10:32:22;;;;;;;9.40;4.20;;;10.30;99.90;;;;;;5063983;28;20076;-77
2023/11/08 10:34:48;;;;;;;8.40;5.03;;;10.30;99.90;;;;;;5067892;28;20068;-78
2023/11/08 10:37:27;;;;;;;7.25;4.50;;;10.40;99.90;;;;;;5061279;28;20510;-77
2023/11/08 10:39:54;;;;;;;6.95;4.20;;;10.40;99.90;;;;;;5067014;28;20043;-77
2023/11/08 10:42:24;;;;;;;9.10;4.80;;;10.40;99.90;;;;;;5067089;28;20550;-77
2023/11/08 10:44:52;;;;;;;7.93;4.43;;;10.40;99.90;;;;;;5061771;28;20051;-76
2023/11/08 10:47:17;;;;;;;9.07;5.03;;;10.40;99.90;;;;;;5040309;28;20048;-76
2023/11/08 10:49:50;;;;;;;8.23;4.50;;;10.40;99.90;;;;;;5064294;28;20047;-78
2023/11/08 10:52:18;;;;;;;5.38;4.05;;;10.40;99.90;;;;;;5080572;28;20123;-77
2023/11/08 10:54:44;;;;;;;5.93;4.70;;;10.50;99.90;;;;;;5049131;28;20051;-78
2023/11/08 10:57:13;;;;;;;9.10;3.92;;;10.50;99.90;;;;;;5055781;28;20056;-78
2023/11/08 10:59:43;;;;;;;8.55;3.80;;;10.50;99.90;;;;;;5043726;28;20055;-78
2023/11/08 11:02:29;;;;;;;;;;;10.50;99.90;;;;;;5055135;28;20055;-78
2023/11/08 11:05:03;;;;;;;6.53;3.55;;;10.50;99.90;;;;;;5054386;28;19928;-79
2023/11/08 11:07:30;;;;;;;6.85;4.10;;;10.50;99.90;;;;;;5054751;28;20048;-78
2023/11/08 11:09:56;;;;;;;7.63;3.47;;;10.50;99.90;;;;;;5056621;28;20040;-78
2023/11/08 11:12:50;;;;;;;7.30;3.42;;;10.60;99.90;;;;;;5044263;28;20036;-78
2023/11/08 11:15:29;;;;;;;6.22;3.15;;;10.60;99.90;;;;;;5078482;28;20044;-78
2023/11/08 11:17:58;;;;;;;8.00;3.50;;;10.60;99.90;;;;;;5046823;28;20044;-78
2023/11/08 11:20:32;;;;;;;6.72;3.88;;;10.70;99.90;;;;;;5056885;28;20753;-78
2023/11/08 11:22:58;;;;;;;7.00;3.35;;;10.70;99.90;;;;;;5058726;28;20809;-78
2023/11/08 11:25:50;;;;;;;7.80;3.08;;;10.70;99.90;;;;;;5064395;28;20048;-78
2023/11/08 11:28:52;;;;;;;6.80;3.20;;;10.70;99.90;;;;;;5055024;28;20048;-78
2023/11/08 11:31:33;;;;;;;6.95;3.20;;;10.70;99.90;;;;;;5054366;28;20052;-80
2023/11/08 11:34:00;;;;;;;5.50;3.00;;;10.70;99.90;;;;;;5054234;28;20048;-78
2023/11/08 11:36:26;;;;;;;7.20;3.63;;;10.70;99.90;;;;;;5054872;28;20059;-78
2023/11/08 11:39:22;;;;;;;7.65;3.58;;;10.60;99.90;;;;;;5055041;28;20044;-79
2023/11/08 11:41:48;;;;;;;6.93;3.05;;;10.50;99.90;;;;;;5044346;28;20149;-79
2023/11/08 11:44:14;;;;;;;4.47;2.83;;;10.50;99.90;;;;;;5052744;28;20741;-77
2023/11/08 11:46:40;;;;;;;8.38;3.40;;;10.50;99.90;;;;;;5042192;28;20649;-79
2023/11/08 11:49:13;;;;;;;6.55;3.63;;;10.50;99.90;;;;;;5054147;28;20188;-78
2023/11/08 11:51:41;;;;;;;7.57;3.17;;;10.50;99.90;;;;;;5042394;28;20044;-78
2023/11/08 11:54:07;;;;;;;5.80;3.55;;;10.50;99.90;;;;;;5056606;28;20157;-79
2023/11/08 11:56:35;;;;;;;6.78;3.70;;;10.50;99.90;;;;;;5054174;28;20040;-79
2023/11/08 11:59:04;;;;;;;8.80;3.97;;;10.50;99.90;;;;;;5041483;28;20311;-79
2023/11/08 12:01:32;;;;;;;7.85;3.50;;;10.50;99.90;;;;;;5053437;28;20044;-77
2023/11/08 12:03:59;;;;;;;8.55;3.83;;;10.50;99.90;;;;;;5057153;28;20486;-78
2023/11/08 12:06:27;;;;;;;8.65;3.70;;;10.50;99.90;;;;;;5058096;28;20066;-78
2023/11/08 12:08:53;;;;;;;7.10;3.95;;;10.40;99.90;;;;;;5056747;28;20066;-78
2023/11/08 12:11:19;;;;;;;7.00;3.42;;;10.40;99.90;;;;;;5059360;28;20052;-79
2023/11/08 12:13:53;;;;;;;8.40;3.83;;;10.40;99.90;;;;;;5058721;28;21296;-79
2023/11/08 12:16:20;;;;;;;8.73;3.70;;;10.40;99.90;;;;;;5060336;28;20495;-79
2023/11/08 12:18:50;;;;;;;8.77;3.90;;;10.40;99.90;;;;;;5043946;28;20044;-78
2023/11/08 12:21:17;;;;;;;8.80;4.63;;;10.30;99.90;;;;;;5056809;28;20086;-78
2023/11/08 12:23:48;;;;;;;7.55;3.72;;;10.30;99.90;;;;;;5044535;28;20056;-76
2023/11/08 12:26:13;;;;;;;;;;;10.30;99.90;;;;;;5058497;28;20417;-76
2023/11/08 12:28:40;;;;;;;8.88;4.20;;;10.30;99.90;;;;;;5054456;28;19928;-77
2023/11/08 12:31:17;;;;;;;8.13;4.32;;;10.30;99.90;;;;;;5043413;28;20077;-77
2023/11/08 12:33:43;;;;;;;9.93;4.65;;;10.40;99.90;;;;;;5068717;28;20048;-77
2023/11/08 12:36:09;;;;;;;9.55;4.82;;;10.40;99.90;;;;;;5067428;28;20043;-76
2023/11/08 12:38:38;;;;;;;9.20;4.38;;;10.50;99.90;;;;;;5082549;28;20052;-77
2023/11/08 12:41:07;;;;;;;10.38;4.70;;;10.60;99.90;;;;;;5079629;28;20123;-76
2023/11/08 12:43:33;;;;;;;9.57;4.22;;;10.70;99.90;;;;;;5100050;27;20067;-77
2023/11/08 12:46:07;;;;;;;6.82;4.05;;;10.80;99.90;;;;;;5068581;28;20048;-76